sensor_id;sensor_type;location;lat;lon;timestamp;P1;durP1;ratioP1;P2;durP2;ratioP2
64375;SDS011;50700;55.416;12.952;2023-03-02T00:01:07;15.88;;;7.03;;
64375;SDS011;50700;55.416;12.952;2023-03-02T00:03:37;16.88;;;6.90;;
64375;SDS011;50700;55.416;12.952;2023-03-02T00:06:04;16.58;;;7.82;;
64375;SDS011;50700;55.416;12.952;2023-03-02T00:08:31;15.93;;;7.35;;
64375;SDS011;50700;55.416;12.952;2023-03-02T00:10:57;16.45;;;7.18;;
64375;SDS011;50700;55.416;12.952;2023-03-02T00:13:25;15.43;;;7.78;;
64375;SDS011;50700;55.416;12.952;2023-03-02T00:15:52;17.35;;;8.38;;
64375;SDS011;50700;55.416;12.952;2023-03-02T00:18:18;16.05;;;7.97;;
64375;SDS011;50700;55.416;12.952;2023-03-02T00:20:44;17.55;;;8.70;;
64375;SDS011;50700;55.416;12.952;2023-03-02T00:23:10;15.95;;;7.85;;
64375;SDS011;50700;55.416;12.952;2023-03-02T00:25:37;17.05;;;8.00;;
64375;SDS011;50700;55.416;12.952;2023-03-02T00:28:04;15.13;;;7.68;;
64375;SDS011;50700;55.416;12.952;2023-03-02T00:30:30;16.75;;;7.80;;
64375;SDS011;50700;55.416;12.952;2023-03-02T00:32:56;14.45;;;7.53;;
64375;SDS011;50700;55.416;12.952;2023-03-02T00:35:23;16.05;;;7.28;;
64375;SDS011;50700;55.416;12.952;2023-03-02T00:37:52;13.43;;;7.55;;
64375;SDS011;50700;55.416;12.952;2023-03-02T00:40:18;18.63;;;8.35;;
64375;SDS011;50700;55.416;12.952;2023-03-02T00:42:44;17.52;;;8.65;;
64375;SDS011;50700;55.416;12.952;2023-03-02T00:45:10;15.60;;;7.72;;
64375;SDS011;50700;55.416;12.952;2023-03-02T00:47:37;19.95;;;8.18;;
64375;SDS011;50700;55.416;12.952;2023-03-02T00:50:03;18.15;;;8.52;;
64375;SDS011;50700;55.416;12.952;2023-03-02T00:52:30;14.95;;;8.18;;
64375;SDS011;50700;55.416;12.952;2023-03-02T00:54:57;17.65;;;8.98;;
64375;SDS011;50700;55.416;12.952;2023-03-02T00:57:23;16.05;;;8.50;;
64375;SDS011;50700;55.416;12.952;2023-03-02T00:59:49;17.00;;;9.18;;
64375;SDS011;50700;55.416;12.952;2023-03-02T01:02:16;18.85;;;8.82;;
64375;SDS011;50700;55.416;12.952;2023-03-02T01:04:42;17.95;;;8.38;;
64375;SDS011;50700;55.416;12.952;2023-03-02T01:07:12;16.30;;;8.55;;
64375;SDS011;50700;55.416;12.952;2023-03-02T01:09:40;21.00;;;8.82;;
64375;SDS011;50700;55.416;12.952;2023-03-02T01:12:06;14.68;;;8.15;;
64375;SDS011;50700;55.416;12.952;2023-03-02T01:14:35;17.17;;;8.40;;
64375;SDS011;50700;55.416;12.952;2023-03-02T01:17:01;16.52;;;9.13;;
64375;SDS011;50700;55.416;12.952;2023-03-02T01:19:28;18.67;;;8.57;;
64375;SDS011;50700;55.416;12.952;2023-03-02T01:21:54;16.25;;;9.07;;
64375;SDS011;50700;55.416;12.952;2023-03-02T01:24:20;17.50;;;8.13;;
64375;SDS011;50700;55.416;12.952;2023-03-02T01:26:46;23.60;;;10.30;;
64375;SDS011;50700;55.416;12.952;2023-03-02T01:29:12;17.77;;;9.48;;
64375;SDS011;50700;55.416;12.952;2023-03-02T01:31:39;15.55;;;8.73;;
64375;SDS011;50700;55.416;12.952;2023-03-02T01:34:05;15.55;;;8.82;;
64375;SDS011;50700;55.416;12.952;2023-03-02T01:36:31;19.58;;;9.23;;
64375;SDS011;50700;55.416;12.952;2023-03-02T01:38:57;19.65;;;9.50;;
64375;SDS011;50700;55.416;12.952;2023-03-02T01:41:24;16.02;;;9.32;;
64375;SDS011;50700;55.416;12.952;2023-03-02T01:43:50;18.40;;;9.18;;
64375;SDS011;50700;55.416;12.952;2023-03-02T01:48:47;20.15;;;9.23;;
64375;SDS011;50700;55.416;12.952;2023-03-02T01:51:16;17.67;;;8.75;;
64375;SDS011;50700;55.416;12.952;2023-03-02T01:53:43;12.40;;;8.38;;
64375;SDS011;50700;55.416;12.952;2023-03-02T01:56:21;18.80;;;9.77;;
64375;SDS011;50700;55.416;12.952;2023-03-02T01:58:50;19.23;;;8.85;;
64375;SDS011;50700;55.416;12.952;2023-03-02T02:01:17;20.33;;;9.82;;
64375;SDS011;50700;55.416;12.952;2023-03-02T02:03:44;20.23;;;9.38;;
64375;SDS011;50700;55.416;12.952;2023-03-02T02:06:14;23.25;;;9.07;;
64375;SDS011;50700;55.416;12.952;2023-03-02T02:08:43;20.27;;;10.18;;
64375;SDS011;50700;55.416;12.952;2023-03-02T02:11:11;21.10;;;9.45;;
64375;SDS011;50700;55.416;12.952;2023-03-02T02:13:37;18.60;;;9.75;;
64375;SDS011;50700;55.416;12.952;2023-03-02T02:16:04;17.55;;;9.80;;
64375;SDS011;50700;55.416;12.952;2023-03-02T02:18:30;17.77;;;9.50;;
64375;SDS011;50700;55.416;12.952;2023-03-02T02:20:56;20.88;;;10.65;;
64375;SDS011;50700;55.416;12.952;2023-03-02T02:23:34;21.95;;;10.70;;
64375;SDS011;50700;55.416;12.952;2023-03-02T02:26:03;17.73;;;10.18;;
64375;SDS011;50700;55.416;12.952;2023-03-02T02:28:41;23.52;;;10.57;;
64375;SDS011;50700;55.416;12.952;2023-03-02T02:33:54;18.25;;;9.45;;
64375;SDS011;50700;55.416;12.952;2023-03-02T02:36:22;23.45;;;10.13;;
64375;SDS011;50700;55.416;12.952;2023-03-02T02:38:50;19.08;;;9.43;;
64375;SDS011;50700;55.416;12.952;2023-03-02T02:41:28;21.00;;;10.43;;
64375;SDS011;50700;55.416;12.952;2023-03-02T02:43:56;22.02;;;10.05;;
64375;SDS011;50700;55.416;12.952;2023-03-02T02:46:22;22.17;;;10.20;;
64375;SDS011;50700;55.416;12.952;2023-03-02T02:48:49;19.48;;;9.65;;
64375;SDS011;50700;55.416;12.952;2023-03-02T02:51:17;17.52;;;9.80;;
64375;SDS011;50700;55.416;12.952;2023-03-02T02:53:58;18.23;;;10.15;;
64375;SDS011;50700;55.416;12.952;2023-03-02T02:56:36;19.25;;;10.20;;
64375;SDS011;50700;55.416;12.952;2023-03-02T02:59:04;22.77;;;10.02;;
64375;SDS011;50700;55.416;12.952;2023-03-02T03:01:34;19.23;;;10.38;;
64375;SDS011;50700;55.416;12.952;2023-03-02T03:04:01;19.40;;;9.38;;
64375;SDS011;50700;55.416;12.952;2023-03-02T03:06:29;23.55;;;10.85;;
64375;SDS011;50700;55.416;12.952;2023-03-02T03:09:17;19.77;;;9.85;;
64375;SDS011;50700;55.416;12.952;2023-03-02T03:11:44;17.98;;;10.52;;
64375;SDS011;50700;55.416;12.952;2023-03-02T03:14:12;21.40;;;11.35;;
64375;SDS011;50700;55.416;12.952;2023-03-02T03:16:41;22.45;;;10.45;;
64375;SDS011;50700;55.416;12.952;2023-03-02T03:19:12;24.90;;;11.50;;
64375;SDS011;50700;55.416;12.952;2023-03-02T03:21:41;24.45;;;10.68;;
64375;SDS011;50700;55.416;12.952;2023-03-02T03:24:07;22.75;;;11.10;;
64375;SDS011;50700;55.416;12.952;2023-03-02T03:26:33;18.73;;;10.18;;
64375;SDS011;50700;55.416;12.952;2023-03-02T03:29:00;20.27;;;10.77;;
64375;SDS011;50700;55.416;12.952;2023-03-02T03:31:26;19.35;;;10.25;;
64375;SDS011;50700;55.416;12.952;2023-03-02T03:33:53;18.65;;;10.25;;
64375;SDS011;50700;55.416;12.952;2023-03-02T03:36:19;18.42;;;9.15;;
64375;SDS011;50700;55.416;12.952;2023-03-02T03:38:46;21.27;;;10.20;;
64375;SDS011;50700;55.416;12.952;2023-03-02T03:41:13;21.33;;;10.35;;
64375;SDS011;50700;55.416;12.952;2023-03-02T03:43:39;18.20;;;9.85;;
64375;SDS011;50700;55.416;12.952;2023-03-02T03:46:05;25.00;;;11.15;;
64375;SDS011;50700;55.416;12.952;2023-03-02T03:48:32;23.25;;;10.73;;
64375;SDS011;50700;55.416;12.952;2023-03-02T03:50:58;23.65;;;10.68;;
64375;SDS011;50700;55.416;12.952;2023-03-02T03:53:25;17.20;;;9.55;;
64375;SDS011;50700;55.416;12.952;2023-03-02T03:55:51;22.50;;;10.02;;
64375;SDS011;50700;55.416;12.952;2023-03-02T03:58:18;16.90;;;9.45;;
64375;SDS011;50700;55.416;12.952;2023-03-02T04:00:44;21.90;;;9.32;;
64375;SDS011;50700;55.416;12.952;2023-03-02T04:03:13;19.20;;;9.75;;
64375;SDS011;50700;55.416;12.952;2023-03-02T04:05:39;19.30;;;9.73;;
64375;SDS011;50700;55.416;12.952;2023-03-02T04:08:05;17.42;;;8.38;;
64375;SDS011;50700;55.416;12.952;2023-03-02T04:10:32;15.02;;;8.02;;
64375;SDS011;50700;55.416;12.952;2023-03-02T04:12:58;16.77;;;8.07;;
64375;SDS011;50700;55.416;12.952;2023-03-02T04:15:24;15.45;;;7.80;;
64375;SDS011;50700;55.416;12.952;2023-03-02T04:17:51;14.05;;;8.18;;
64375;SDS011;50700;55.416;12.952;2023-03-02T04:20:18;16.27;;;7.43;;
64375;SDS011;50700;55.416;12.952;2023-03-02T04:22:46;13.63;;;7.43;;
64375;SDS011;50700;55.416;12.952;2023-03-02T04:25:13;17.50;;;8.93;;
64375;SDS011;50700;55.416;12.952;2023-03-02T04:27:39;18.13;;;8.77;;
64375;SDS011;50700;55.416;12.952;2023-03-02T04:30:06;16.58;;;8.18;;
64375;SDS011;50700;55.416;12.952;2023-03-02T04:32:32;16.00;;;8.40;;
64375;SDS011;50700;55.416;12.952;2023-03-02T04:34:58;12.55;;;7.28;;
64375;SDS011;50700;55.416;12.952;2023-03-02T04:37:25;13.93;;;7.57;;
64375;SDS011;50700;55.416;12.952;2023-03-02T04:39:51;14.57;;;7.40;;
64375;SDS011;50700;55.416;12.952;2023-03-02T04:42:18;13.40;;;7.43;;
64375;SDS011;50700;55.416;12.952;2023-03-02T04:44:44;13.75;;;7.53;;
64375;SDS011;50700;55.416;12.952;2023-03-02T04:47:10;13.45;;;6.88;;
64375;SDS011;50700;55.416;12.952;2023-03-02T04:49:36;12.70;;;7.65;;
64375;SDS011;50700;55.416;12.952;2023-03-02T04:52:03;12.00;;;7.20;;
64375;SDS011;50700;55.416;12.952;2023-03-02T04:54:29;10.68;;;6.53;;
64375;SDS011;50700;55.416;12.952;2023-03-02T04:56:55;12.35;;;7.07;;
64375;SDS011;50700;55.416;12.952;2023-03-02T04:59:23;14.85;;;7.30;;
64375;SDS011;50700;55.416;12.952;2023-03-02T05:01:50;15.07;;;7.55;;
64375;SDS011;50700;55.416;12.952;2023-03-02T05:04:17;11.57;;;6.47;;
64375;SDS011;50700;55.416;12.952;2023-03-02T05:06:43;13.25;;;7.05;;
64375;SDS011;50700;55.416;12.952;2023-03-02T05:09:10;15.35;;;7.18;;
64375;SDS011;50700;55.416;12.952;2023-03-02T05:11:36;13.95;;;7.45;;
64375;SDS011;50700;55.416;12.952;2023-03-02T05:14:03;15.88;;;7.18;;
64375;SDS011;50700;55.416;12.952;2023-03-02T05:16:30;12.27;;;7.38;;
64375;SDS011;50700;55.416;12.952;2023-03-02T05:18:58;18.02;;;7.95;;
64375;SDS011;50700;55.416;12.952;2023-03-02T05:21:24;14.60;;;7.47;;
64375;SDS011;50700;55.416;12.952;2023-03-02T05:23:50;14.95;;;7.65;;
64375;SDS011;50700;55.416;12.952;2023-03-02T05:26:17;16.48;;;7.43;;
64375;SDS011;50700;55.416;12.952;2023-03-02T05:28:43;11.23;;;6.40;;
64375;SDS011;50700;55.416;12.952;2023-03-02T05:31:32;17.50;;;8.07;;
64375;SDS011;50700;55.416;12.952;2023-03-02T05:33:56;13.35;;;7.10;;
64375;SDS011;50700;55.416;12.952;2023-03-02T05:36:22;13.80;;;7.22;;
64375;SDS011;50700;55.416;12.952;2023-03-02T05:38:48;13.73;;;7.53;;
64375;SDS011;50700;55.416;12.952;2023-03-02T05:41:14;10.48;;;6.35;;
64375;SDS011;50700;55.416;12.952;2023-03-02T05:43:41;11.95;;;7.00;;
64375;SDS011;50700;55.416;12.952;2023-03-02T05:46:07;13.73;;;7.78;;
64375;SDS011;50700;55.416;12.952;2023-03-02T05:48:33;15.55;;;7.78;;
64375;SDS011;50700;55.416;12.952;2023-03-02T05:50:59;14.02;;;7.68;;
64375;SDS011;50700;55.416;12.952;2023-03-02T05:53:26;16.13;;;7.88;;
64375;SDS011;50700;55.416;12.952;2023-03-02T05:55:52;16.88;;;7.60;;
64375;SDS011;50700;55.416;12.952;2023-03-02T05:58:18;18.25;;;8.13;;
64375;SDS011;50700;55.416;12.952;2023-03-02T06:00:45;15.52;;;7.80;;
64375;SDS011;50700;55.416;12.952;2023-03-02T06:03:12;13.55;;;7.72;;
64375;SDS011;50700;55.416;12.952;2023-03-02T06:05:38;16.52;;;8.13;;
64375;SDS011;50700;55.416;12.952;2023-03-02T06:08:04;16.52;;;7.40;;
64375;SDS011;50700;55.416;12.952;2023-03-02T06:10:31;16.83;;;8.40;;
64375;SDS011;50700;55.416;12.952;2023-03-02T06:12:58;17.70;;;8.23;;
64375;SDS011;50700;55.416;12.952;2023-03-02T06:15:24;12.85;;;7.47;;
64375;SDS011;50700;55.416;12.952;2023-03-02T06:17:54;16.30;;;8.38;;
64375;SDS011;50700;55.416;12.952;2023-03-02T06:20:20;12.32;;;7.13;;
64375;SDS011;50700;55.416;12.952;2023-03-02T06:22:46;15.48;;;7.88;;
64375;SDS011;50700;55.416;12.952;2023-03-02T06:25:14;15.98;;;7.82;;
64375;SDS011;50700;55.416;12.952;2023-03-02T06:27:41;13.45;;;8.48;;
64375;SDS011;50700;55.416;12.952;2023-03-02T06:30:09;15.82;;;8.05;;
64375;SDS011;50700;55.416;12.952;2023-03-02T06:32:36;14.50;;;7.88;;
64375;SDS011;50700;55.416;12.952;2023-03-02T06:35:03;16.77;;;8.50;;
64375;SDS011;50700;55.416;12.952;2023-03-02T06:37:30;16.90;;;8.35;;
64375;SDS011;50700;55.416;12.952;2023-03-02T06:39:56;17.85;;;9.25;;
64375;SDS011;50700;55.416;12.952;2023-03-02T06:42:23;14.85;;;8.27;;
64375;SDS011;50700;55.416;12.952;2023-03-02T06:44:50;12.73;;;7.57;;
64375;SDS011;50700;55.416;12.952;2023-03-02T06:47:18;14.52;;;7.43;;
64375;SDS011;50700;55.416;12.952;2023-03-02T06:49:45;13.13;;;7.50;;
64375;SDS011;50700;55.416;12.952;2023-03-02T06:52:11;15.63;;;8.43;;
64375;SDS011;50700;55.416;12.952;2023-03-02T06:54:39;17.92;;;8.68;;
64375;SDS011;50700;55.416;12.952;2023-03-02T06:57:05;18.42;;;8.85;;
64375;SDS011;50700;55.416;12.952;2023-03-02T06:59:32;15.95;;;7.95;;
64375;SDS011;50700;55.416;12.952;2023-03-02T07:01:58;14.82;;;8.50;;
64375;SDS011;50700;55.416;12.952;2023-03-02T07:04:24;14.45;;;7.70;;
64375;SDS011;50700;55.416;12.952;2023-03-02T07:06:52;16.60;;;7.47;;
64375;SDS011;50700;55.416;12.952;2023-03-02T07:09:18;10.55;;;6.20;;
64375;SDS011;50700;55.416;12.952;2023-03-02T07:11:45;12.32;;;7.03;;
64375;SDS011;50700;55.416;12.952;2023-03-02T07:14:11;10.05;;;6.40;;
64375;SDS011;50700;55.416;12.952;2023-03-02T07:16:37;11.35;;;6.22;;
64375;SDS011;50700;55.416;12.952;2023-03-02T07:19:03;8.38;;;5.70;;
64375;SDS011;50700;55.416;12.952;2023-03-02T07:21:29;9.77;;;5.57;;
64375;SDS011;50700;55.416;12.952;2023-03-02T07:23:56;11.98;;;6.60;;
64375;SDS011;50700;55.416;12.952;2023-03-02T07:26:22;12.40;;;5.88;;
64375;SDS011;50700;55.416;12.952;2023-03-02T07:28:48;13.40;;;5.93;;
64375;SDS011;50700;55.416;12.952;2023-03-02T07:31:14;11.70;;;5.95;;
64375;SDS011;50700;55.416;12.952;2023-03-02T07:33:40;8.02;;;5.95;;
64375;SDS011;50700;55.416;12.952;2023-03-02T07:36:06;10.52;;;5.53;;
64375;SDS011;50700;55.416;12.952;2023-03-02T07:38:33;10.18;;;5.95;;
64375;SDS011;50700;55.416;12.952;2023-03-02T07:41:04;11.77;;;5.75;;
64375;SDS011;50700;55.416;12.952;2023-03-02T07:43:30;10.20;;;6.10;;
64375;SDS011;50700;55.416;12.952;2023-03-02T07:45:59;10.13;;;6.22;;
64375;SDS011;50700;55.416;12.952;2023-03-02T07:48:25;11.48;;;6.22;;
64375;SDS011;50700;55.416;12.952;2023-03-02T07:50:56;10.15;;;6.05;;
64375;SDS011;50700;55.416;12.952;2023-03-02T07:53:22;10.57;;;6.43;;
64375;SDS011;50700;55.416;12.952;2023-03-02T07:55:48;9.27;;;5.53;;
64375;SDS011;50700;55.416;12.952;2023-03-02T07:58:14;12.65;;;6.65;;
64375;SDS011;50700;55.416;12.952;2023-03-02T08:00:41;9.63;;;5.95;;
64375;SDS011;50700;55.416;12.952;2023-03-02T08:03:07;8.85;;;5.55;;
64375;SDS011;50700;55.416;12.952;2023-03-02T08:05:33;10.73;;;6.25;;
64375;SDS011;50700;55.416;12.952;2023-03-02T08:07:59;13.85;;;6.30;;
64375;SDS011;50700;55.416;12.952;2023-03-02T08:10:25;11.25;;;6.18;;
64375;SDS011;50700;55.416;12.952;2023-03-02T08:12:51;9.63;;;5.57;;
64375;SDS011;50700;55.416;12.952;2023-03-02T08:15:17;9.13;;;6.22;;
64375;SDS011;50700;55.416;12.952;2023-03-02T08:17:43;12.18;;;6.38;;
64375;SDS011;50700;55.416;12.952;2023-03-02T08:20:10;10.95;;;6.45;;
64375;SDS011;50700;55.416;12.952;2023-03-02T08:22:36;9.90;;;5.88;;
64375;SDS011;50700;55.416;12.952;2023-03-02T08:25:02;11.05;;;6.30;;
64375;SDS011;50700;55.416;12.952;2023-03-02T08:27:29;11.63;;;6.20;;
64375;SDS011;50700;55.416;12.952;2023-03-02T08:29:55;10.57;;;6.00;;
64375;SDS011;50700;55.416;12.952;2023-03-02T08:32:21;10.77;;;6.40;;
64375;SDS011;50700;55.416;12.952;2023-03-02T08:34:47;13.88;;;7.15;;
64375;SDS011;50700;55.416;12.952;2023-03-02T08:37:16;12.88;;;7.18;;
64375;SDS011;50700;55.416;12.952;2023-03-02T08:39:43;11.85;;;7.18;;
64375;SDS011;50700;55.416;12.952;2023-03-02T08:42:09;14.05;;;7.55;;
64375;SDS011;50700;55.416;12.952;2023-03-02T08:44:35;11.98;;;7.18;;
64375;SDS011;50700;55.416;12.952;2023-03-02T08:47:01;12.55;;;7.93;;
64375;SDS011;50700;55.416;12.952;2023-03-02T08:49:27;12.15;;;8.02;;
64375;SDS011;50700;55.416;12.952;2023-03-02T08:51:54;11.55;;;7.25;;
64375;SDS011;50700;55.416;12.952;2023-03-02T08:54:20;10.70;;;7.70;;
64375;SDS011;50700;55.416;12.952;2023-03-02T08:56:47;15.02;;;8.00;;
64375;SDS011;50700;55.416;12.952;2023-03-02T08:59:15;16.13;;;8.35;;
64375;SDS011;50700;55.416;12.952;2023-03-02T09:01:42;14.65;;;8.73;;
64375;SDS011;50700;55.416;12.952;2023-03-02T09:04:09;19.25;;;8.82;;
64375;SDS011;50700;55.416;12.952;2023-03-02T09:06:36;13.07;;;8.30;;
64375;SDS011;50700;55.416;12.952;2023-03-02T09:09:03;12.50;;;7.72;;
64375;SDS011;50700;55.416;12.952;2023-03-02T09:11:30;14.07;;;8.55;;
64375;SDS011;50700;55.416;12.952;2023-03-02T09:13:56;14.85;;;9.30;;
64375;SDS011;50700;55.416;12.952;2023-03-02T09:16:22;15.23;;;8.50;;
64375;SDS011;50700;55.416;12.952;2023-03-02T09:18:50;13.68;;;8.52;;
64375;SDS011;50700;55.416;12.952;2023-03-02T09:21:16;15.77;;;7.95;;
64375;SDS011;50700;55.416;12.952;2023-03-02T09:23:42;13.90;;;8.48;;
64375;SDS011;50700;55.416;12.952;2023-03-02T09:26:08;16.75;;;9.18;;
64375;SDS011;50700;55.416;12.952;2023-03-02T09:28:35;18.15;;;10.00;;
64375;SDS011;50700;55.416;12.952;2023-03-02T09:31:02;14.20;;;8.60;;
64375;SDS011;50700;55.416;12.952;2023-03-02T09:33:29;16.92;;;9.32;;
64375;SDS011;50700;55.416;12.952;2023-03-02T09:35:55;16.67;;;9.65;;
64375;SDS011;50700;55.416;12.952;2023-03-02T09:38:22;17.25;;;9.35;;
64375;SDS011;50700;55.416;12.952;2023-03-02T09:45:51;17.60;;;10.02;;
64375;SDS011;50700;55.416;12.952;2023-03-02T09:51:28;15.57;;;8.90;;
64375;SDS011;50700;55.416;12.952;2023-03-02T09:56:25;16.20;;;7.85;;
64375;SDS011;50700;55.416;12.952;2023-03-02T09:59:02;12.38;;;7.22;;
64375;SDS011;50700;55.416;12.952;2023-03-02T10:01:34;13.32;;;6.22;;
64375;SDS011;50700;55.416;12.952;2023-03-02T10:04:07;9.68;;;5.65;;
64375;SDS011;50700;55.416;12.952;2023-03-02T10:06:34;10.07;;;4.55;;
64375;SDS011;50700;55.416;12.952;2023-03-02T10:09:01;10.98;;;5.03;;
64375;SDS011;50700;55.416;12.952;2023-03-02T10:11:34;7.25;;;4.30;;
64375;SDS011;50700;55.416;12.952;2023-03-02T10:14:06;6.70;;;4.50;;
64375;SDS011;50700;55.416;12.952;2023-03-02T10:16:46;9.23;;;4.25;;
64375;SDS011;50700;55.416;12.952;2023-03-02T10:21:43;7.43;;;4.47;;
64375;SDS011;50700;55.416;12.952;2023-03-02T10:31:30;11.32;;;4.63;;
64375;SDS011;50700;55.416;12.952;2023-03-02T10:33:57;8.20;;;4.35;;
64375;SDS011;50700;55.416;12.952;2023-03-02T10:36:25;9.10;;;4.60;;
64375;SDS011;50700;55.416;12.952;2023-03-02T10:38:52;7.40;;;4.43;;
64375;SDS011;50700;55.416;12.952;2023-03-02T10:41:24;7.47;;;4.50;;
64375;SDS011;50700;55.416;12.952;2023-03-02T10:43:53;7.13;;;4.28;;
64375;SDS011;50700;55.416;12.952;2023-03-02T10:46:20;11.50;;;5.45;;
64375;SDS011;50700;55.416;12.952;2023-03-02T10:48:53;10.10;;;4.75;;
64375;SDS011;50700;55.416;12.952;2023-03-02T10:51:26;9.73;;;5.05;;
64375;SDS011;50700;55.416;12.952;2023-03-02T10:56:31;7.65;;;4.65;;
64375;SDS011;50700;55.416;12.952;2023-03-02T10:58:58;6.82;;;4.40;;
64375;SDS011;50700;55.416;12.952;2023-03-02T11:01:28;9.55;;;4.68;;
64375;SDS011;50700;55.416;12.952;2023-03-02T11:03:55;6.93;;;4.28;;
64375;SDS011;50700;55.416;12.952;2023-03-02T11:06:21;8.23;;;4.60;;
64375;SDS011;50700;55.416;12.952;2023-03-02T11:08:58;6.72;;;4.15;;
64375;SDS011;50700;55.416;12.952;2023-03-02T11:11:24;15.25;;;5.57;;
64375;SDS011;50700;55.416;12.952;2023-03-02T11:13:51;11.80;;;4.20;;
64375;SDS011;50700;55.416;12.952;2023-03-02T11:19:06;6.10;;;3.92;;
64375;SDS011;50700;55.416;12.952;2023-03-02T11:21:34;10.65;;;4.68;;
64375;SDS011;50700;55.416;12.952;2023-03-02T11:26:38;7.23;;;3.93;;
64375;SDS011;50700;55.416;12.952;2023-03-02T11:31:50;10.57;;;4.53;;
64375;SDS011;50700;55.416;12.952;2023-03-02T11:34:28;7.28;;;3.70;;
64375;SDS011;50700;55.416;12.952;2023-03-02T11:40:11;7.38;;;4.22;;
64375;SDS011;50700;55.416;12.952;2023-03-02T11:42:27;7.07;;;4.00;;
64375;SDS011;50700;55.416;12.952;2023-03-02T11:44:54;6.05;;;3.50;;
64375;SDS011;50700;55.416;12.952;2023-03-02T11:47:20;7.18;;;3.58;;
64375;SDS011;50700;55.416;12.952;2023-03-02T11:49:52;9.07;;;3.83;;
64375;SDS011;50700;55.416;12.952;2023-03-02T11:52:23;6.80;;;3.70;;
64375;SDS011;50700;55.416;12.952;2023-03-02T11:54:52;7.38;;;3.60;;
64375;SDS011;50700;55.416;12.952;2023-03-02T11:57:22;10.43;;;3.90;;
64375;SDS011;50700;55.416;12.952;2023-03-02T11:59:50;6.55;;;3.17;;
64375;SDS011;50700;55.416;12.952;2023-03-02T12:02:18;7.47;;;3.65;;
64375;SDS011;50700;55.416;12.952;2023-03-02T12:04:45;6.47;;;3.50;;
64375;SDS011;50700;55.416;12.952;2023-03-02T12:09:43;6.10;;;2.97;;
64375;SDS011;50700;55.416;12.952;2023-03-02T12:14:51;5.18;;;3.28;;
64375;SDS011;50700;55.416;12.952;2023-03-02T12:17:21;6.78;;;3.35;;
64375;SDS011;50700;55.416;12.952;2023-03-02T12:22:33;3.90;;;2.97;;
64375;SDS011;50700;55.416;12.952;2023-03-02T12:25:02;4.03;;;2.90;;
64375;SDS011;50700;55.416;12.952;2023-03-02T12:27:34;4.75;;;2.78;;
64375;SDS011;50700;55.416;12.952;2023-03-02T12:30:34;10.57;;;3.30;;
64375;SDS011;50700;55.416;12.952;2023-03-02T12:35:35;3.47;;;2.65;;
64375;SDS011;50700;55.416;12.952;2023-03-02T12:38:03;4.07;;;2.70;;
64375;SDS011;50700;55.416;12.952;2023-03-02T12:40:31;5.22;;;2.78;;
64375;SDS011;50700;55.416;12.952;2023-03-02T12:48:28;4.78;;;2.97;;
64375;SDS011;50700;55.416;12.952;2023-03-02T12:50:59;4.20;;;2.95;;
64375;SDS011;50700;55.416;12.952;2023-03-02T12:53:26;6.40;;;2.97;;
64375;SDS011;50700;55.416;12.952;2023-03-02T12:55:52;7.47;;;3.03;;
64375;SDS011;50700;55.416;12.952;2023-03-02T12:58:22;6.18;;;3.08;;
64375;SDS011;50700;55.416;12.952;2023-03-02T13:00:52;5.65;;;3.35;;
64375;SDS011;50700;55.416;12.952;2023-03-02T13:03:19;7.60;;;3.70;;
64375;SDS011;50700;55.416;12.952;2023-03-02T13:05:46;9.68;;;4.50;;
64375;SDS011;50700;55.416;12.952;2023-03-02T13:08:15;7.38;;;3.45;;
64375;SDS011;50700;55.416;12.952;2023-03-02T13:10:52;9.57;;;4.28;;
64375;SDS011;50700;55.416;12.952;2023-03-02T13:13:20;7.20;;;3.92;;
64375;SDS011;50700;55.416;12.952;2023-03-02T13:18:15;7.30;;;4.10;;
64375;SDS011;50700;55.416;12.952;2023-03-02T13:20:41;10.80;;;5.47;;
64375;SDS011;50700;55.416;12.952;2023-03-02T13:23:17;8.27;;;4.60;;
64375;SDS011;50700;55.416;12.952;2023-03-02T13:25:50;6.22;;;4.32;;
64375;SDS011;50700;55.416;12.952;2023-03-02T13:28:24;9.20;;;4.97;;
64375;SDS011;50700;55.416;12.952;2023-03-02T13:30:59;6.90;;;4.57;;
64375;SDS011;50700;55.416;12.952;2023-03-02T13:33:26;11.07;;;4.03;;
64375;SDS011;50700;55.416;12.952;2023-03-02T13:35:52;8.98;;;4.35;;
64375;SDS011;50700;55.416;12.952;2023-03-02T13:38:21;9.63;;;4.45;;
64375;SDS011;50700;55.416;12.952;2023-03-02T13:40:48;7.88;;;3.90;;
64375;SDS011;50700;55.416;12.952;2023-03-02T13:43:19;6.47;;;3.53;;
64375;SDS011;50700;55.416;12.952;2023-03-02T13:45:53;5.30;;;2.83;;
64375;SDS011;50700;55.416;12.952;2023-03-02T13:48:20;8.77;;;3.63;;
64375;SDS011;50700;55.416;12.952;2023-03-02T13:50:56;6.55;;;3.53;;
64375;SDS011;50700;55.416;12.952;2023-03-02T13:53:27;10.88;;;3.72;;
64375;SDS011;50700;55.416;12.952;2023-03-02T13:55:54;8.40;;;3.70;;
64375;SDS011;50700;55.416;12.952;2023-03-02T13:58:21;6.18;;;4.07;;
64375;SDS011;50700;55.416;12.952;2023-03-02T14:00:49;8.70;;;3.72;;
64375;SDS011;50700;55.416;12.952;2023-03-02T14:03:26;7.65;;;3.60;;
64375;SDS011;50700;55.416;12.952;2023-03-02T14:05:53;7.78;;;4.03;;
64375;SDS011;50700;55.416;12.952;2023-03-02T14:08:19;9.32;;;4.60;;
64375;SDS011;50700;55.416;12.952;2023-03-02T14:10:46;6.68;;;4.10;;
64375;SDS011;50700;55.416;12.952;2023-03-02T14:13:17;10.88;;;4.25;;
64375;SDS011;50700;55.416;12.952;2023-03-02T14:15:46;10.98;;;4.35;;
64375;SDS011;50700;55.416;12.952;2023-03-02T14:20:55;5.72;;;3.40;;
64375;SDS011;50700;55.416;12.952;2023-03-02T14:23:22;5.97;;;3.92;;
64375;SDS011;50700;55.416;12.952;2023-03-02T14:25:49;8.13;;;3.95;;
64375;SDS011;50700;55.416;12.952;2023-03-02T14:28:49;8.20;;;4.15;;
64375;SDS011;50700;55.416;12.952;2023-03-02T14:31:08;7.47;;;3.60;;
64375;SDS011;50700;55.416;12.952;2023-03-02T14:33:35;6.60;;;3.78;;
64375;SDS011;50700;55.416;12.952;2023-03-02T14:36:01;6.57;;;3.47;;
64375;SDS011;50700;55.416;12.952;2023-03-02T14:38:29;8.68;;;4.03;;
64375;SDS011;50700;55.416;12.952;2023-03-02T14:40:55;6.70;;;3.60;;
64375;SDS011;50700;55.416;12.952;2023-03-02T14:43:22;6.40;;;4.20;;
64375;SDS011;50700;55.416;12.952;2023-03-02T14:45:49;7.43;;;3.80;;
64375;SDS011;50700;55.416;12.952;2023-03-02T14:48:16;7.68;;;3.88;;
64375;SDS011;50700;55.416;12.952;2023-03-02T14:50:43;7.85;;;4.60;;
64375;SDS011;50700;55.416;12.952;2023-03-02T14:53:15;6.93;;;3.78;;
64375;SDS011;50700;55.416;12.952;2023-03-02T14:55:42;9.50;;;3.78;;
64375;SDS011;50700;55.416;12.952;2023-03-02T14:58:13;7.32;;;3.72;;
64375;SDS011;50700;55.416;12.952;2023-03-02T15:00:40;8.30;;;3.97;;
64375;SDS011;50700;55.416;12.952;2023-03-02T15:03:08;10.77;;;3.70;;
64375;SDS011;50700;55.416;12.952;2023-03-02T15:05:35;7.47;;;4.28;;
64375;SDS011;50700;55.416;12.952;2023-03-02T15:08:02;8.52;;;3.67;;
64375;SDS011;50700;55.416;12.952;2023-03-02T15:10:28;5.72;;;3.55;;
64375;SDS011;50700;55.416;12.952;2023-03-02T15:12:54;8.75;;;4.07;;
64375;SDS011;50700;55.416;12.952;2023-03-02T15:15:20;6.90;;;3.95;;
64375;SDS011;50700;55.416;12.952;2023-03-02T15:17:47;9.65;;;4.28;;
64375;SDS011;50700;55.416;12.952;2023-03-02T15:20:14;9.25;;;4.22;;
64375;SDS011;50700;55.416;12.952;2023-03-02T15:22:41;10.13;;;4.72;;
64375;SDS011;50700;55.416;12.952;2023-03-02T15:25:08;7.63;;;4.15;;
64375;SDS011;50700;55.416;12.952;2023-03-02T15:27:34;6.50;;;4.00;;